This is the latest recevied weather packets stored in our database for station/object EW2905. If no packets are shown the sender has not sent any weather packets the latest 10 day(s).
| Time | Temp. | Humidity | Pressure | Rain* | Wind** | Luminosity | Snow |
|---|---|---|---|---|---|---|---|
| 1777828716 | 19.44° C | 55% | 1021.4 hPa | 0 mm | - | - | - |
| 1777828536 | 20° C | 54% | 1021.4 hPa | 0 mm | - | - | - |
| 1777828356 | 21.11° C | 52% | 1021.4 hPa | 0 mm | - | - | - |
| 1777828175 | 21.11° C | 52% | 1021.4 hPa | 0 mm | - | - | - |
| 1777827996 | 21.67° C | 53% | 1021.4 hPa | 0 mm | - | - | - |
| 1777827816 | 22.22° C | 48% | 1021.4 hPa | 0 mm | - | - | - |
| 1777827636 | 22.78° C | 46% | 1021.4 hPa | 0 mm | - | - | - |
| 1777827455 | 22.78° C | 48% | 1021.4 hPa | 0 mm | - | - | - |
| 1777827095 | 22.78° C | 45% | 1021.4 hPa | 0 mm | - | - | - |
| 1777826916 | 22.78° C | 45% | 1021.4 hPa | 0 mm | - | - | - |
| 1777826735 | 22.78° C | 46% | 1021.4 hPa | 0 mm | - | - | - |
| 1777826556 | 22.78° C | 45% | 1021.4 hPa | 0 mm | - | - | - |
| 1777826376 | 22.78° C | 44% | 1021.4 hPa | 0 mm | - | - | - |
| 1777826195 | 23.89° C | 39% | 1021.4 hPa | 0 mm | - | - | - |
| 1777826016 | 23.89° C | 40% | 1021.4 hPa | 0 mm | - | - | - |
| 1777825836 | 23.89° C | 39% | 1021.4 hPa | 0 mm | - | - | - |
| 1777825656 | 23.89° C | 40% | 1021.4 hPa | 0 mm | - | - | - |
| 1777825476 | 23.89° C | 40% | 1021.4 hPa | 0 mm | - | - | - |
| 1777825296 | 23.89° C | 39% | 1021.4 hPa | 0 mm | - | - | - |
| 1777825116 | 23.89° C | 40% | 1021.4 hPa | 0 mm | - | - | - |
| 1777824935 | 24.44° C | 40% | 1021.4 hPa | 0 mm | - | - | - |
| 1777824756 | 24.44° C | 38% | 1021.4 hPa | 0 mm | - | - | - |
| 1777824576 | 23.89° C | 38% | 1021.4 hPa | 0 mm | - | - | - |
| 1777824395 | 23.89° C | 37% | 1021.4 hPa | 0 mm | - | - | - |
| 1777824216 | 23.89° C | 38% | 1021.4 hPa | 0 mm | - | - | - |
* Rain latest hour (hover to see other rain measurements)
** Current wind speed in m/s (hover to see current wind gust speed)